createdAt,value
2018-08-12T00:01:30.320Z,101971.00
2018-08-12T00:04:00.356Z,101970.00
2018-08-12T00:06:30.358Z,101961.00
2018-08-12T00:09:00.393Z,101958.00
2018-08-12T00:11:30.306Z,101961.00
2018-08-12T00:14:00.310Z,101957.00
2018-08-12T00:16:30.500Z,101952.00
2018-08-12T00:19:00.327Z,101945.00
2018-08-12T00:21:30.377Z,101946.00
2018-08-12T00:24:00.524Z,101944.00
2018-08-12T00:26:30.350Z,101945.00
2018-08-12T00:29:00.589Z,101944.00
2018-08-12T00:31:30.354Z,101941.00
2018-08-12T00:34:00.366Z,101938.00
2018-08-12T00:36:30.433Z,101942.00
2018-08-12T00:39:00.721Z,101945.00
2018-08-12T00:41:30.280Z,101946.00
2018-08-12T00:44:00.432Z,101952.00
2018-08-12T00:46:30.364Z,101938.00
2018-08-12T00:49:00.510Z,101933.00
2018-08-12T00:51:30.436Z,101936.00
2018-08-12T00:54:00.409Z,101933.00
2018-08-12T00:56:30.354Z,101937.00
2018-08-12T00:59:00.451Z,101932.00
2018-08-12T01:01:30.416Z,101943.00
2018-08-12T01:04:00.802Z,101931.00
2018-08-12T01:06:30.405Z,101931.00
2018-08-12T01:09:00.464Z,101931.00
2018-08-12T01:11:30.529Z,101928.00
2018-08-12T01:14:00.517Z,101934.00
2018-08-12T01:16:30.511Z,101931.00
2018-08-12T01:19:00.731Z,101934.00
2018-08-12T01:21:30.482Z,101931.00
2018-08-12T01:24:00.491Z,101932.00
2018-08-12T01:26:30.526Z,101932.00
2018-08-12T01:29:00.476Z,101924.00
2018-08-12T01:31:30.577Z,101921.00
2018-08-12T01:34:00.592Z,101926.00
2018-08-12T01:36:30.432Z,101918.00
2018-08-12T01:39:00.486Z,101914.00
2018-08-12T01:41:30.541Z,101915.00
2018-08-12T01:44:00.488Z,101917.00
2018-08-12T01:46:30.623Z,101927.00
2018-08-12T01:49:00.567Z,101925.00
2018-08-12T01:51:30.500Z,101922.00
2018-08-12T01:54:00.542Z,101916.00
2018-08-12T01:56:30.722Z,101913.00
2018-08-12T01:59:00.566Z,101913.00
2018-08-12T02:01:30.596Z,101909.00
2018-08-12T02:04:00.625Z,101911.00
2018-08-12T02:06:30.656Z,101913.00
2018-08-12T02:09:00.553Z,101911.00
2018-08-12T02:11:30.588Z,101910.00
2018-08-12T02:14:00.569Z,101913.00
2018-08-12T02:16:30.609Z,101917.00
2018-08-12T02:19:00.641Z,101912.00
2018-08-12T02:21:30.655Z,101912.00
2018-08-12T02:24:00.739Z,101904.00
2018-08-12T02:26:30.628Z,101904.00
2018-08-12T02:29:00.628Z,101904.00
2018-08-12T02:31:30.610Z,101897.00
2018-08-12T02:34:00.808Z,101897.00
2018-08-12T02:36:30.675Z,101898.00
2018-08-12T02:39:00.614Z,101900.00
2018-08-12T02:41:30.733Z,101893.00
2018-08-12T02:44:00.697Z,101892.00
2018-08-12T02:46:30.874Z,101892.00
2018-08-12T02:49:00.689Z,101890.00
2018-08-12T02:51:30.741Z,101885.00
2018-08-12T02:54:00.751Z,101890.00
2018-08-12T02:56:30.963Z,101887.00
2018-08-12T02:59:00.664Z,101881.00
2018-08-12T03:01:30.715Z,101883.00
2018-08-12T03:04:00.713Z,101881.00
2018-08-12T03:06:30.745Z,101871.00
2018-08-12T03:09:00.716Z,101872.00
2018-08-12T03:11:30.670Z,101875.00
2018-08-12T03:14:00.781Z,101876.00
2018-08-12T03:16:30.846Z,101876.00
2018-08-12T03:19:00.754Z,101877.00
2018-08-12T03:21:30.752Z,101873.00
2018-08-12T03:24:00.773Z,101873.00
2018-08-12T03:26:30.746Z,101874.00
2018-08-12T03:29:00.771Z,101873.00
2018-08-12T03:31:30.766Z,101873.00
2018-08-12T03:34:00.777Z,101871.00
2018-08-12T03:36:30.755Z,101868.00
2018-08-12T03:39:00.759Z,101866.00
2018-08-12T03:41:30.831Z,101864.00
2018-08-12T03:44:00.841Z,101859.00
2018-08-12T03:46:30.810Z,101864.00
2018-08-12T03:49:00.864Z,101863.00
2018-08-12T03:51:30.818Z,101868.00
2018-08-12T03:54:00.819Z,101866.00
2018-08-12T03:56:30.876Z,101869.00
2018-08-12T03:59:00.780Z,101868.00
2018-08-12T04:01:30.890Z,101866.00
2018-08-12T04:04:00.870Z,101867.00
2018-08-12T04:06:30.842Z,101863.00
2018-08-12T04:09:01.040Z,101872.00
2018-08-12T04:11:30.831Z,101864.00
2018-08-12T04:14:00.843Z,101865.00
2018-08-12T04:16:30.941Z,101866.00
2018-08-12T04:19:01.047Z,101863.00
2018-08-12T04:21:31.256Z,101866.00
2018-08-12T04:24:00.939Z,101862.00
2018-08-12T04:26:31.082Z,101857.00
2018-08-12T04:29:00.841Z,101863.00
2018-08-12T04:31:30.887Z,101860.00
2018-08-12T04:34:01.107Z,101861.00
2018-08-12T04:36:31.064Z,101859.00
2018-08-12T04:39:00.922Z,101862.00
2018-08-12T04:41:30.955Z,101860.00
2018-08-12T04:44:00.946Z,101860.00
2018-08-12T04:46:30.985Z,101854.00
2018-08-12T04:49:00.969Z,101859.00
2018-08-12T04:51:31.002Z,101866.00
2018-08-12T04:54:00.937Z,101858.00
2018-08-12T04:56:31.259Z,101852.00
2018-08-12T04:59:00.942Z,101852.00
2018-08-12T05:01:31.093Z,101852.00
2018-08-12T05:04:01.131Z,101853.00
2018-08-12T05:06:30.942Z,101853.00
2018-08-12T05:09:00.981Z,101858.00
2018-08-12T05:11:31.007Z,101849.00
2018-08-12T05:14:01.353Z,101850.00
2018-08-12T05:16:31.058Z,101849.00
2018-08-12T05:19:01.022Z,101846.00
2018-08-12T05:21:31.093Z,101843.00
2018-08-12T05:24:01.129Z,101844.00
2018-08-12T05:26:31.055Z,101844.00
2018-08-12T05:29:01.086Z,101835.00
2018-08-12T05:31:31.157Z,101838.00
2018-08-12T05:34:01.241Z,101839.00
2018-08-12T05:36:31.025Z,101831.00
2018-08-12T05:39:01.441Z,101837.00
2018-08-12T05:41:30.992Z,101835.00
2018-08-12T05:44:01.077Z,101829.00
2018-08-12T05:46:31.476Z,101822.00
2018-08-12T05:49:01.106Z,101823.00
2018-08-12T05:51:31.565Z,101814.00
2018-08-12T05:54:01.206Z,101811.00
2018-08-12T05:56:31.192Z,101815.00
2018-08-12T05:59:01.054Z,101815.00
2018-08-12T06:01:31.113Z,101823.00
2018-08-12T06:04:01.498Z,101816.00
2018-08-12T06:06:31.147Z,101807.00
2018-08-12T06:09:01.231Z,101807.00
2018-08-12T06:11:31.134Z,101806.00
2018-08-12T06:14:01.178Z,101804.00
2018-08-12T06:16:31.220Z,101799.00
2018-08-12T06:19:01.177Z,101796.00
2018-08-12T06:21:31.229Z,101794.00
2018-08-12T06:24:01.134Z,101793.00
2018-08-12T06:26:31.225Z,101789.00
2018-08-12T06:29:01.235Z,101793.00
2018-08-12T06:31:31.286Z,101790.00
2018-08-12T06:34:01.239Z,101793.00
2018-08-12T06:36:31.287Z,101788.00
2018-08-12T06:39:01.286Z,101790.00
2018-08-12T06:41:31.188Z,101795.00
2018-08-12T06:44:01.172Z,101792.00
2018-08-12T06:46:31.231Z,101787.00
2018-08-12T06:49:01.208Z,101787.00
2018-08-12T06:51:31.298Z,101789.00
2018-08-12T06:54:01.246Z,101783.00
2018-08-12T06:56:31.313Z,101774.00
2018-08-12T06:59:01.405Z,101776.00
2018-08-12T07:01:31.262Z,101773.00
2018-08-12T07:04:01.624Z,101771.00
2018-08-12T07:06:31.404Z,101768.00
2018-08-12T07:09:01.423Z,101770.00
2018-08-12T07:11:31.303Z,101766.00
2018-08-12T07:14:01.359Z,101767.00
2018-08-12T07:16:31.368Z,101761.00
2018-08-12T07:19:01.514Z,101763.00
2018-08-12T07:21:31.230Z,101764.00
2018-08-12T07:24:01.654Z,101761.00
2018-08-12T07:26:31.894Z,101766.00
2018-08-12T07:29:01.510Z,101763.00
2018-08-12T07:31:31.445Z,101764.00
2018-08-12T07:34:01.530Z,101765.00
2018-08-12T07:36:31.575Z,101767.00
2018-08-12T07:39:01.307Z,101766.00
2018-08-12T07:41:31.367Z,101765.00
2018-08-12T07:44:01.555Z,101761.00
2018-08-12T07:46:31.849Z,101763.00
2018-08-12T07:49:01.541Z,101759.00
2018-08-12T07:51:31.379Z,101751.00
2018-08-12T07:54:01.277Z,101761.00
2018-08-12T07:56:31.398Z,101756.00
2018-08-12T07:59:01.425Z,101760.00
2018-08-12T08:01:31.428Z,101752.00
2018-08-12T08:04:01.695Z,101749.00
2018-08-12T08:06:31.506Z,101745.00
2018-08-12T08:09:01.401Z,101745.00
2018-08-12T08:11:31.392Z,101744.00
2018-08-12T08:14:01.462Z,101739.00
2018-08-12T08:16:31.358Z,101744.00
2018-08-12T08:19:01.565Z,101733.00
2018-08-12T08:21:31.485Z,101726.00
2018-08-12T08:24:01.418Z,101721.00
2018-08-12T08:26:31.410Z,101715.00
2018-08-12T08:29:01.448Z,101718.00
2018-08-12T08:31:31.532Z,101714.00
2018-08-12T08:34:01.744Z,101716.00
2018-08-12T08:36:31.509Z,101710.00
2018-08-12T08:39:01.477Z,101703.00
2018-08-12T08:41:31.613Z,101707.00
2018-08-12T08:44:01.614Z,101703.00
2018-08-12T08:46:31.515Z,101700.00
2018-08-12T08:49:01.490Z,101693.00
2018-08-12T08:51:31.538Z,101694.00
2018-08-12T08:54:01.797Z,101693.00
2018-08-12T08:56:31.741Z,101695.00
2018-08-12T08:59:01.467Z,101690.00
2018-08-12T09:01:31.617Z,101686.00
2018-08-12T09:04:01.581Z,101688.00
2018-08-12T09:06:31.613Z,101688.00
2018-08-12T09:09:01.828Z,101680.00
2018-08-12T09:11:31.620Z,101676.00
2018-08-12T09:14:01.666Z,101675.00
2018-08-12T09:16:31.561Z,101667.00
2018-08-12T09:19:01.562Z,101660.00
2018-08-12T09:21:31.853Z,101664.00
2018-08-12T09:24:01.660Z,101661.00
2018-08-12T09:26:32.097Z,101662.00
2018-08-12T09:29:01.801Z,101658.00
2018-08-12T09:31:32.127Z,101652.00
2018-08-12T09:34:01.994Z,101657.00
2018-08-12T09:36:31.742Z,101647.00
2018-08-12T09:39:01.558Z,101650.00
2018-08-12T09:41:31.794Z,101658.00
2018-08-12T09:44:01.636Z,101654.00
2018-08-12T09:46:31.768Z,101654.00
2018-08-12T09:49:01.771Z,101656.00
2018-08-12T09:51:32.159Z,101653.00
2018-08-12T09:54:01.924Z,101656.00
2018-08-12T09:56:31.627Z,101666.00
2018-08-12T09:59:01.651Z,101655.00
2018-08-12T10:01:31.640Z,101660.00
2018-08-12T10:04:01.777Z,101658.00
2018-08-12T10:06:31.645Z,101665.00
2018-08-12T10:09:01.928Z,101662.00
2018-08-12T10:11:31.738Z,101657.00
2018-08-12T10:14:01.741Z,101668.00
2018-08-12T10:16:31.687Z,101664.00
2018-08-12T10:21:10.770Z,101664.00
2018-08-12T10:23:40.102Z,101654.00
2018-08-12T10:26:09.409Z,101652.00
2018-08-12T10:28:38.857Z,101646.00
2018-08-12T10:32:50.370Z,101646.00
2018-08-12T11:11:11.521Z,101608.00
2018-08-12T11:13:41.028Z,101602.00
2018-08-12T11:16:10.364Z,101607.00
2018-08-12T11:18:39.702Z,101591.00
2018-08-12T11:21:09.232Z,101587.00
2018-08-12T11:23:38.651Z,101584.00
2018-08-12T11:26:08.019Z,101586.00
2018-08-12T11:28:37.481Z,101577.00
2018-08-12T11:31:06.904Z,101581.00
2018-08-12T11:33:36.229Z,101585.00
2018-08-12T11:36:05.694Z,101583.00
2018-08-12T11:38:35.000Z,101583.00
2018-08-12T11:41:04.362Z,101582.00
2018-08-12T11:43:33.696Z,101583.00
2018-08-12T11:46:03.002Z,101586.00
2018-08-12T11:48:32.349Z,101581.00
2018-08-12T11:51:01.977Z,101582.00
2018-08-12T11:53:31.902Z,101582.00
2018-08-12T11:56:02.012Z,101583.00
2018-08-12T11:58:32.029Z,101582.00
2018-08-12T12:01:01.903Z,101582.00
2018-08-12T12:03:31.908Z,101574.00
2018-08-12T12:06:02.016Z,101572.00
2018-08-12T12:08:31.877Z,101558.00
2018-08-12T12:11:01.993Z,101557.00
2018-08-12T12:13:32.043Z,101549.00
2018-08-12T12:16:02.016Z,101545.00
2018-08-12T12:18:32.469Z,101538.00
2018-08-12T12:21:01.948Z,101540.00
2018-08-12T12:23:32.800Z,101536.00
2018-08-12T12:26:02.234Z,101530.00
2018-08-12T12:28:32.088Z,101532.00
2018-08-12T12:31:02.090Z,101530.00
2018-08-12T12:33:36.782Z,101526.00
2018-08-12T12:36:07.701Z,101530.00
2018-08-12T12:38:40.512Z,101521.00
2018-08-12T12:41:10.635Z,101513.00
2018-08-12T12:43:40.348Z,101517.00
2018-08-12T12:46:10.261Z,101511.00
2018-08-12T12:48:39.967Z,101515.00
2018-08-12T12:51:09.700Z,101507.00
2018-08-12T12:53:39.431Z,101509.00
2018-08-12T12:56:08.769Z,101504.00
2018-08-12T12:58:38.111Z,101502.00
2018-08-12T13:01:07.619Z,101497.00
2018-08-12T13:03:36.949Z,101494.00
2018-08-12T13:06:06.325Z,101494.00
2018-08-12T13:08:35.679Z,101489.00
2018-08-12T13:11:05.286Z,101495.00
2018-08-12T13:13:34.619Z,101485.00
2018-08-12T13:16:04.009Z,101483.00
2018-08-12T13:18:33.406Z,101479.00
2018-08-12T13:21:02.762Z,101471.00
2018-08-12T13:23:32.125Z,101470.00
2018-08-12T13:26:02.176Z,101459.00
2018-08-12T13:28:32.602Z,101449.00
2018-08-12T13:31:02.201Z,101448.00
2018-08-12T13:33:32.195Z,101441.00
2018-08-12T13:36:02.157Z,101442.00
2018-08-12T13:38:32.226Z,101439.00
2018-08-12T13:41:02.317Z,101437.00
2018-08-12T13:43:32.260Z,101437.00
2018-08-12T13:46:02.188Z,101432.00
2018-08-12T13:48:32.298Z,101440.00
2018-08-12T13:51:02.209Z,101433.00
2018-08-12T13:53:32.124Z,101433.00
2018-08-12T13:56:02.166Z,101433.00
2018-08-12T13:58:32.201Z,101424.00
2018-08-12T14:01:02.231Z,101423.00
2018-08-12T14:03:32.332Z,101425.00
2018-08-12T14:06:02.199Z,101417.00
2018-08-12T14:08:32.349Z,101417.00
2018-08-12T14:11:02.425Z,101410.00
2018-08-12T14:13:32.479Z,101403.00
2018-08-12T14:16:02.372Z,101405.00
2018-08-12T14:18:32.549Z,101405.00
2018-08-12T14:21:02.516Z,101391.00
2018-08-12T14:23:32.513Z,101398.00
2018-08-12T14:26:02.436Z,101398.00
2018-08-12T14:28:32.515Z,101394.00
2018-08-12T14:31:02.446Z,101382.00
2018-08-12T14:33:32.666Z,101386.00
2018-08-12T14:36:02.489Z,101380.00
2018-08-12T14:38:32.564Z,101375.00
2018-08-12T14:41:02.459Z,101367.00
2018-08-12T14:43:32.555Z,101371.00
2018-08-12T14:46:02.522Z,101372.00
2018-08-12T14:48:32.514Z,101366.00
2018-08-12T14:51:02.572Z,101363.00
2018-08-12T14:53:32.441Z,101362.00
2018-08-12T14:56:02.513Z,101353.00
2018-08-12T14:58:32.821Z,101353.00
2018-08-12T15:01:02.502Z,101348.00
2018-08-12T15:03:32.891Z,101349.00
2018-08-12T15:06:02.585Z,101341.00
2018-08-12T15:08:32.599Z,101339.00
2018-08-12T15:11:02.521Z,101334.00
2018-08-12T15:13:32.650Z,101331.00
2018-08-12T15:16:02.502Z,101330.00
2018-08-12T15:18:32.587Z,101324.00
2018-08-12T15:21:02.739Z,101322.00
2018-08-12T15:23:32.596Z,101319.00
2018-08-12T15:26:02.670Z,101321.00
2018-08-12T15:28:32.570Z,101317.00
2018-08-12T15:31:02.568Z,101317.00
2018-08-12T15:33:32.602Z,101316.00
2018-08-12T15:36:02.579Z,101309.00
2018-08-12T15:38:32.642Z,101291.00
2018-08-12T15:41:02.640Z,101291.00
2018-08-12T15:43:32.705Z,101288.00
2018-08-12T15:46:02.518Z,101286.00
2018-08-12T15:48:32.590Z,101277.00
2018-08-12T15:51:02.704Z,101271.00
2018-08-12T15:53:32.698Z,101268.00
2018-08-12T15:56:02.572Z,101260.00
2018-08-12T15:58:32.581Z,101256.00
2018-08-12T16:01:02.628Z,101257.00
2018-08-12T16:03:32.647Z,101261.00
2018-08-12T16:06:02.844Z,101252.00
2018-08-12T16:08:34.305Z,101247.00
2018-08-12T16:11:03.797Z,101248.00
2018-08-12T16:13:34.096Z,101246.00
2018-08-12T16:16:03.413Z,101244.00
2018-08-12T16:18:32.766Z,101244.00
2018-08-12T16:21:02.705Z,101234.00
2018-08-12T16:23:32.752Z,101234.00
2018-08-12T16:26:02.803Z,101229.00
2018-08-12T16:28:32.736Z,101229.00
2018-08-12T16:31:02.680Z,101221.00
2018-08-12T16:33:32.729Z,101225.00
2018-08-12T16:36:02.759Z,101218.00
2018-08-12T16:38:32.698Z,101212.00
2018-08-12T16:41:02.824Z,101212.00
2018-08-12T16:43:32.792Z,101208.00
2018-08-12T16:46:02.813Z,101206.00
2018-08-12T16:48:32.709Z,101202.00
2018-08-12T16:51:02.741Z,101199.00
2018-08-12T16:53:32.810Z,101198.00
2018-08-12T16:56:02.955Z,101202.00
2018-08-12T16:58:32.737Z,101198.00
2018-08-12T17:01:02.817Z,101199.00
2018-08-12T17:03:32.791Z,101194.00
2018-08-12T17:06:02.782Z,101194.00
2018-08-12T17:08:32.990Z,101194.00
2018-08-12T17:11:02.699Z,101179.00
2018-08-12T17:13:32.792Z,101182.00
2018-08-12T17:16:02.986Z,101180.00
2018-08-12T17:18:32.732Z,101179.00
2018-08-12T17:21:02.762Z,101174.00
2018-08-12T17:23:32.762Z,101175.00
2018-08-12T17:26:02.839Z,101166.00
2018-08-12T17:28:32.774Z,101160.00
2018-08-12T17:31:02.787Z,101155.00
2018-08-12T17:33:32.860Z,101154.00
2018-08-12T17:36:02.835Z,101156.00
2018-08-12T17:38:33.045Z,101155.00
2018-08-12T17:41:03.282Z,101157.00
2018-08-12T17:43:32.856Z,101154.00
2018-08-12T17:46:02.914Z,101154.00
2018-08-12T17:48:32.932Z,101153.00
2018-08-12T17:51:02.805Z,101154.00
2018-08-12T17:53:33.068Z,101154.00
2018-08-12T17:56:02.871Z,101152.00
2018-08-12T17:58:32.972Z,101152.00
2018-08-12T18:01:02.863Z,101150.00
2018-08-12T18:03:32.989Z,101148.00
2018-08-12T18:06:02.858Z,101147.00
2018-08-12T18:08:33.085Z,101143.00
2018-08-12T18:11:02.912Z,101144.00
2018-08-12T18:13:32.974Z,101139.00
2018-08-12T18:16:03.067Z,101139.00
2018-08-12T18:18:33.245Z,101140.00
2018-08-12T18:21:02.989Z,101140.00
2018-08-12T18:23:32.938Z,101139.00
2018-08-12T18:26:02.924Z,101140.00
2018-08-12T18:28:33.033Z,101134.00
2018-08-12T18:31:02.931Z,101127.00
2018-08-12T18:33:32.983Z,101132.00
2018-08-12T18:36:03.244Z,101132.00
2018-08-12T18:38:32.942Z,101136.00
2018-08-12T18:41:03.039Z,101135.00
2018-08-12T18:43:33.035Z,101134.00
2018-08-12T18:46:02.949Z,101134.00
2018-08-12T18:48:32.968Z,101131.00
2018-08-12T18:51:02.998Z,101129.00
2018-08-12T18:53:33.091Z,101123.00
2018-08-12T18:56:03.013Z,101132.00
2018-08-12T18:58:33.033Z,101129.00
2018-08-12T19:01:03.926Z,101132.00
2018-08-12T19:03:33.298Z,101123.00
2018-08-12T19:06:03.150Z,101125.00
2018-08-12T19:08:33.342Z,101125.00
2018-08-12T19:11:02.987Z,101127.00
2018-08-12T19:13:33.125Z,101125.00
2018-08-12T19:16:03.529Z,101122.00
2018-08-12T19:18:33.581Z,101124.00
2018-08-12T19:21:03.495Z,101115.00
2018-08-12T19:23:33.033Z,101116.00
2018-08-12T19:26:03.182Z,101113.00
2018-08-12T19:28:33.043Z,101113.00
2018-08-12T19:31:03.054Z,101114.00
2018-08-12T19:33:33.327Z,101118.00
2018-08-12T19:36:03.274Z,101119.00
2018-08-12T19:38:33.174Z,101113.00
2018-08-12T19:41:03.126Z,101117.00
2018-08-12T19:43:33.106Z,101114.00
2018-08-12T19:46:03.042Z,101111.00
2018-08-12T19:48:33.422Z,101108.00
2018-08-12T19:51:03.165Z,101107.00
2018-08-12T19:53:33.256Z,101106.00
2018-08-12T19:56:03.133Z,101106.00
2018-08-12T19:58:33.246Z,101103.00
2018-08-12T20:01:03.735Z,101101.00
2018-08-12T20:03:33.112Z,101097.00
2018-08-12T20:06:03.070Z,101100.00
2018-08-12T20:08:33.145Z,101098.00
2018-08-12T20:11:03.362Z,101098.00
2018-08-12T20:13:33.235Z,101098.00
2018-08-12T20:16:03.390Z,101097.00
2018-08-12T20:18:33.564Z,101100.00
2018-08-12T20:21:03.154Z,101094.00
2018-08-12T20:23:33.384Z,101093.00
2018-08-12T20:26:03.230Z,101087.00
2018-08-12T20:28:33.264Z,101089.00
2018-08-12T20:31:03.335Z,101088.00
2018-08-12T20:33:33.976Z,101086.00
2018-08-12T20:36:03.417Z,101085.00
2018-08-12T20:38:33.393Z,101084.00
2018-08-12T20:41:03.153Z,101084.00
2018-08-12T20:43:33.160Z,101080.00
2018-08-12T20:46:03.207Z,101076.00
2018-08-12T20:48:33.279Z,101081.00
2018-08-12T20:51:03.185Z,101078.00
2018-08-12T20:53:33.447Z,101077.00
2018-08-12T20:56:03.195Z,101071.00
2018-08-12T20:58:33.434Z,101072.00
2018-08-12T21:01:03.224Z,101068.00
2018-08-12T21:03:33.399Z,101066.00
2018-08-12T21:06:03.210Z,101060.00
2018-08-12T21:08:33.347Z,101059.00
2018-08-12T21:11:03.334Z,101059.00
2018-08-12T21:13:33.323Z,101061.00
2018-08-12T21:16:03.343Z,101057.00
2018-08-12T21:18:33.230Z,101051.00
2018-08-12T21:21:03.304Z,101060.00
2018-08-12T21:23:33.288Z,101052.00
2018-08-12T21:26:03.270Z,101048.00
2018-08-12T21:28:33.335Z,101054.00
2018-08-12T21:31:03.271Z,101047.00
2018-08-12T21:33:33.332Z,101046.00
2018-08-12T21:36:03.353Z,101047.00
2018-08-12T21:38:33.256Z,101045.00
2018-08-12T21:41:03.349Z,101046.00
2018-08-12T21:43:33.324Z,101043.00
2018-08-12T21:46:03.280Z,101037.00
2018-08-12T21:48:33.275Z,101042.00
2018-08-12T21:51:03.324Z,101043.00
2018-08-12T21:53:33.331Z,101041.00
2018-08-12T21:56:03.386Z,101038.00
2018-08-12T21:58:33.433Z,101037.00
2018-08-12T22:01:03.366Z,101037.00
2018-08-12T22:03:33.609Z,101039.00
2018-08-12T22:06:03.499Z,101037.00
2018-08-12T22:08:33.392Z,101033.00
2018-08-12T22:11:03.398Z,101026.00
2018-08-12T22:13:33.425Z,101026.00
2018-08-12T22:16:03.458Z,101028.00
2018-08-12T22:18:33.548Z,101021.00
2018-08-12T22:21:03.514Z,101017.00
2018-08-12T22:23:33.561Z,101014.00
2018-08-12T22:26:03.449Z,101012.00
2018-08-12T22:28:33.441Z,101010.00
2018-08-12T22:31:03.463Z,101004.00
2018-08-12T22:33:33.570Z,101006.00
2018-08-12T22:36:03.503Z,101008.00
2018-08-12T22:38:33.610Z,101010.00
2018-08-12T22:41:03.461Z,101004.00
2018-08-12T22:43:33.486Z,101008.00
2018-08-12T22:46:03.454Z,101002.00
2018-08-12T22:48:33.664Z,101003.00
2018-08-12T22:51:03.520Z,101001.00
2018-08-12T22:53:33.444Z,100999.00
2018-08-12T22:56:03.649Z,100996.00
2018-08-12T22:58:33.465Z,100996.00
2018-08-12T23:01:03.614Z,100996.00
2018-08-12T23:03:33.583Z,100987.00
2018-08-12T23:06:03.485Z,100989.00
2018-08-12T23:08:33.579Z,100983.00
2018-08-12T23:11:03.608Z,100984.00
2018-08-12T23:13:33.476Z,100984.00
2018-08-12T23:16:22.763Z,100985.00
2018-08-12T23:18:52.286Z,100982.00
2018-08-12T23:21:22.080Z,100976.00
2018-08-12T23:23:52.581Z,100974.00
2018-08-12T23:26:23.191Z,100976.00
2018-08-12T23:28:52.556Z,100975.00
2018-08-12T23:31:21.861Z,100973.00
2018-08-12T23:33:51.209Z,100964.00
2018-08-12T23:36:20.560Z,100966.00
2018-08-12T23:38:49.858Z,100966.00
2018-08-12T23:41:19.169Z,100957.00
2018-08-12T23:43:48.494Z,100953.00
2018-08-12T23:46:17.797Z,100953.00
2018-08-12T23:48:47.537Z,100951.00
2018-08-12T23:51:16.847Z,100957.00
2018-08-12T23:53:46.163Z,100949.00
2018-08-12T23:56:15.516Z,100939.00
2018-08-12T23:58:44.805Z,100950.00
